sensor_id;sensor_type;location;lat;lon;timestamp;P1;durP1;ratioP1;P2;durP2;ratioP2
75997;SDS011;64685;48.762;44.822;2022-11-15T00:02:20;3.58;;;1.20;;
75997;SDS011;64685;48.762;44.822;2022-11-15T00:06:08;3.78;;;1.25;;
75997;SDS011;64685;48.762;44.822;2022-11-15T00:09:51;3.05;;;0.98;;
75997;SDS011;64685;48.762;44.822;2022-11-15T00:13:44;3.92;;;1.13;;
75997;SDS011;64685;48.762;44.822;2022-11-15T00:17:28;3.80;;;1.35;;
75997;SDS011;64685;48.762;44.822;2022-11-15T00:21:12;2.40;;;0.93;;
75997;SDS011;64685;48.762;44.822;2022-11-15T00:24:55;5.88;;;1.83;;
75997;SDS011;64685;48.762;44.822;2022-11-15T00:28:41;4.15;;;1.27;;
75997;SDS011;64685;48.762;44.822;2022-11-15T00:32:31;5.00;;;1.42;;
75997;SDS011;64685;48.762;44.822;2022-11-15T00:36:14;2.15;;;1.10;;
75997;SDS011;64685;48.762;44.822;2022-11-15T00:39:57;4.95;;;1.67;;
75997;SDS011;64685;48.762;44.822;2022-11-15T00:43:40;4.25;;;1.33;;
75997;SDS011;64685;48.762;44.822;2022-11-15T00:47:23;8.45;;;2.20;;
75997;SDS011;64685;48.762;44.822;2022-11-15T00:51:05;12.55;;;4.03;;
75997;SDS011;64685;48.762;44.822;2022-11-15T00:54:48;9.43;;;2.95;;
75997;SDS011;64685;48.762;44.822;2022-11-15T00:58:31;2.92;;;1.65;;
75997;SDS011;64685;48.762;44.822;2022-11-15T01:02:14;5.90;;;2.30;;
75997;SDS011;64685;48.762;44.822;2022-11-15T01:05:58;9.10;;;2.90;;
75997;SDS011;64685;48.762;44.822;2022-11-15T01:09:41;5.80;;;2.60;;
75997;SDS011;64685;48.762;44.822;2022-11-15T01:13:24;2.22;;;1.23;;
75997;SDS011;64685;48.762;44.822;2022-11-15T01:17:07;7.50;;;2.53;;
75997;SDS011;64685;48.762;44.822;2022-11-15T01:20:51;3.60;;;1.20;;
75997;SDS011;64685;48.762;44.822;2022-11-15T01:24:34;4.55;;;0.80;;
75997;SDS011;64685;48.762;44.822;2022-11-15T01:28:17;6.80;;;1.17;;
75997;SDS011;64685;48.762;44.822;2022-11-15T01:32:00;5.60;;;0.93;;
75997;SDS011;64685;48.762;44.822;2022-11-15T01:35:43;2.17;;;0.60;;
75997;SDS011;64685;48.762;44.822;2022-11-15T01:39:26;3.80;;;1.08;;
75997;SDS011;64685;48.762;44.822;2022-11-15T01:42:14;4.25;;;1.70;;
75997;SDS011;64685;48.762;44.822;2022-11-15T01:44:59;3.40;;;1.05;;
75997;SDS011;64685;48.762;44.822;2022-11-15T01:47:45;3.47;;;1.02;;
75997;SDS011;64685;48.762;44.822;2022-11-15T01:50:35;1.40;;;0.40;;
75997;SDS011;64685;48.762;44.822;2022-11-15T01:53:20;0.88;;;0.60;;
75997;SDS011;64685;48.762;44.822;2022-11-15T01:56:07;3.35;;;0.98;;
75997;SDS011;64685;48.762;44.822;2022-11-15T01:58:57;1.83;;;0.63;;
75997;SDS011;64685;48.762;44.822;2022-11-15T02:01:45;4.13;;;0.75;;
75997;SDS011;64685;48.762;44.822;2022-11-15T02:04:31;2.85;;;0.90;;
75997;SDS011;64685;48.762;44.822;2022-11-15T02:07:18;3.05;;;0.70;;
75997;SDS011;64685;48.762;44.822;2022-11-15T02:10:09;1.85;;;0.60;;
75997;SDS011;64685;48.762;44.822;2022-11-15T02:13:01;1.92;;;0.68;;
75997;SDS011;64685;48.762;44.822;2022-11-15T02:15:55;2.45;;;0.43;;
75997;SDS011;64685;48.762;44.822;2022-11-15T02:18:52;2.72;;;1.00;;
75997;SDS011;64685;48.762;44.822;2022-11-15T02:31:28;2.00;;;0.57;;
75997;SDS011;64685;48.762;44.822;2022-11-15T02:34:35;2.00;;;0.98;;
75997;SDS011;64685;48.762;44.822;2022-11-15T02:37:57;2.10;;;0.75;;
75997;SDS011;64685;48.762;44.822;2022-11-15T02:40:52;3.08;;;0.80;;
75997;SDS011;64685;48.762;44.822;2022-11-15T02:49:47;2.35;;;0.45;;
75997;SDS011;64685;48.762;44.822;2022-11-15T02:52:34;4.10;;;1.17;;
75997;SDS011;64685;48.762;44.822;2022-11-15T02:55:35;1.85;;;0.90;;
75997;SDS011;64685;48.762;44.822;2022-11-15T03:01:31;1.77;;;0.60;;
75997;SDS011;64685;48.762;44.822;2022-11-15T03:07:23;1.70;;;0.60;;
75997;SDS011;64685;48.762;44.822;2022-11-15T03:10:32;1.35;;;0.50;;
75997;SDS011;64685;48.762;44.822;2022-11-15T03:13:27;1.25;;;0.82;;
75997;SDS011;64685;48.762;44.822;2022-11-15T03:19:44;5.03;;;0.80;;
75997;SDS011;64685;48.762;44.822;2022-11-15T03:22:32;2.55;;;1.10;;
75997;SDS011;64685;48.762;44.822;2022-11-15T03:25:19;4.47;;;0.63;;
75997;SDS011;64685;48.762;44.822;2022-11-15T03:28:08;1.50;;;0.93;;
75997;SDS011;64685;48.762;44.822;2022-11-15T03:30:56;2.47;;;0.65;;
75997;SDS011;64685;48.762;44.822;2022-11-15T03:33:43;2.85;;;0.88;;
75997;SDS011;64685;48.762;44.822;2022-11-15T03:36:28;2.08;;;0.90;;
75997;SDS011;64685;48.762;44.822;2022-11-15T03:39:22;4.43;;;1.00;;
75997;SDS011;64685;48.762;44.822;2022-11-15T03:50:44;2.88;;;0.75;;
75997;SDS011;64685;48.762;44.822;2022-11-15T03:53:30;10.73;;;1.00;;
75997;SDS011;64685;48.762;44.822;2022-11-15T03:56:15;2.78;;;0.75;;
75997;SDS011;64685;48.762;44.822;2022-11-15T03:59:00;5.72;;;1.10;;
75997;SDS011;64685;48.762;44.822;2022-11-15T04:01:44;4.28;;;0.70;;
75997;SDS011;64685;48.762;44.822;2022-11-15T04:04:28;1.88;;;1.00;;
75997;SDS011;64685;48.762;44.822;2022-11-15T04:07:12;2.92;;;0.65;;
75997;SDS011;64685;48.762;44.822;2022-11-15T04:09:57;3.15;;;1.05;;
75997;SDS011;64685;48.762;44.822;2022-11-15T04:12:47;3.40;;;0.50;;
75997;SDS011;64685;48.762;44.822;2022-11-15T04:15:31;4.53;;;0.82;;
75997;SDS011;64685;48.762;44.822;2022-11-15T04:18:16;4.75;;;1.13;;
75997;SDS011;64685;48.762;44.822;2022-11-15T04:21:01;2.40;;;0.70;;
75997;SDS011;64685;48.762;44.822;2022-11-15T04:24:04;2.65;;;0.73;;
75997;SDS011;64685;48.762;44.822;2022-11-15T04:26:49;2.03;;;0.80;;
75997;SDS011;64685;48.762;44.822;2022-11-15T04:29:33;3.72;;;0.70;;
75997;SDS011;64685;48.762;44.822;2022-11-15T04:32:18;5.30;;;0.75;;
75997;SDS011;64685;48.762;44.822;2022-11-15T04:35:03;5.10;;;1.40;;
75997;SDS011;64685;48.762;44.822;2022-11-15T04:37:47;4.03;;;0.60;;
75997;SDS011;64685;48.762;44.822;2022-11-15T04:40:32;4.63;;;1.02;;
75997;SDS011;64685;48.762;44.822;2022-11-15T04:43:17;5.38;;;1.10;;
75997;SDS011;64685;48.762;44.822;2022-11-15T04:46:01;3.53;;;0.80;;
75997;SDS011;64685;48.762;44.822;2022-11-15T04:48:45;5.43;;;1.10;;
75997;SDS011;64685;48.762;44.822;2022-11-15T04:51:30;3.42;;;1.27;;
75997;SDS011;64685;48.762;44.822;2022-11-15T04:54:14;3.88;;;0.98;;
75997;SDS011;64685;48.762;44.822;2022-11-15T04:56:59;1.55;;;0.55;;
75997;SDS011;64685;48.762;44.822;2022-11-15T04:59:43;5.28;;;1.17;;
75997;SDS011;64685;48.762;44.822;2022-11-15T05:02:28;6.18;;;1.42;;
75997;SDS011;64685;48.762;44.822;2022-11-15T05:05:33;3.13;;;1.00;;
75997;SDS011;64685;48.762;44.822;2022-11-15T05:08:17;4.82;;;1.00;;
75997;SDS011;64685;48.762;44.822;2022-11-15T05:11:01;4.93;;;1.30;;
75997;SDS011;64685;48.762;44.822;2022-11-15T05:13:46;3.88;;;1.13;;
75997;SDS011;64685;48.762;44.822;2022-11-15T05:16:30;3.33;;;1.30;;
75997;SDS011;64685;48.762;44.822;2022-11-15T05:19:15;3.50;;;1.00;;
75997;SDS011;64685;48.762;44.822;2022-11-15T05:22:00;6.15;;;1.40;;
75997;SDS011;64685;48.762;44.822;2022-11-15T05:24:44;7.03;;;1.13;;
75997;SDS011;64685;48.762;44.822;2022-11-15T05:27:28;6.28;;;2.10;;
75997;SDS011;64685;48.762;44.822;2022-11-15T05:30:13;4.57;;;1.48;;
75997;SDS011;64685;48.762;44.822;2022-11-15T05:32:58;7.03;;;1.50;;
75997;SDS011;64685;48.762;44.822;2022-11-15T05:35:45;5.45;;;1.20;;
75997;SDS011;64685;48.762;44.822;2022-11-15T05:38:34;5.68;;;0.90;;
75997;SDS011;64685;48.762;44.822;2022-11-15T05:41:20;3.35;;;1.02;;
75997;SDS011;64685;48.762;44.822;2022-11-15T05:44:09;4.65;;;1.40;;
75997;SDS011;64685;48.762;44.822;2022-11-15T05:46:55;9.15;;;1.90;;
75997;SDS011;64685;48.762;44.822;2022-11-15T05:49:41;8.73;;;1.95;;
75997;SDS011;64685;48.762;44.822;2022-11-15T05:52:29;5.38;;;1.60;;
75997;SDS011;64685;48.762;44.822;2022-11-15T05:55:18;5.63;;;1.30;;
75997;SDS011;64685;48.762;44.822;2022-11-15T05:58:03;8.65;;;2.03;;
75997;SDS011;64685;48.762;44.822;2022-11-15T06:00:47;4.10;;;1.25;;
75997;SDS011;64685;48.762;44.822;2022-11-15T06:03:32;3.22;;;0.88;;
75997;SDS011;64685;48.762;44.822;2022-11-15T06:06:17;7.82;;;0.90;;
75997;SDS011;64685;48.762;44.822;2022-11-15T06:09:01;3.25;;;1.80;;
75997;SDS011;64685;48.762;44.822;2022-11-15T06:11:46;6.22;;;1.65;;
75997;SDS011;64685;48.762;44.822;2022-11-15T06:14:31;3.60;;;1.00;;
75997;SDS011;64685;48.762;44.822;2022-11-15T06:17:16;3.95;;;1.00;;
75997;SDS011;64685;48.762;44.822;2022-11-15T06:20:00;3.67;;;0.85;;
75997;SDS011;64685;48.762;44.822;2022-11-15T06:22:44;3.60;;;0.80;;
75997;SDS011;64685;48.762;44.822;2022-11-15T06:25:29;2.15;;;0.70;;
75997;SDS011;64685;48.762;44.822;2022-11-15T06:28:14;3.55;;;1.02;;
75997;SDS011;64685;48.762;44.822;2022-11-15T06:31:02;2.13;;;0.43;;
75997;SDS011;64685;48.762;44.822;2022-11-15T06:33:48;2.30;;;0.63;;
75997;SDS011;64685;48.762;44.822;2022-11-15T06:36:34;6.75;;;1.48;;
75997;SDS011;64685;48.762;44.822;2022-11-15T06:39:19;4.05;;;1.15;;
75997;SDS011;64685;48.762;44.822;2022-11-15T06:42:04;3.50;;;0.95;;
75997;SDS011;64685;48.762;44.822;2022-11-15T06:44:48;7.45;;;1.73;;
75997;SDS011;64685;48.762;44.822;2022-11-15T06:47:32;2.45;;;0.93;;
75997;SDS011;64685;48.762;44.822;2022-11-15T06:50:17;4.13;;;1.00;;
75997;SDS011;64685;48.762;44.822;2022-11-15T06:53:02;4.45;;;1.10;;
75997;SDS011;64685;48.762;44.822;2022-11-15T06:55:48;2.67;;;0.80;;
75997;SDS011;64685;48.762;44.822;2022-11-15T06:58:33;2.90;;;0.68;;
75997;SDS011;64685;48.762;44.822;2022-11-15T07:04:03;5.40;;;1.55;;
75997;SDS011;64685;48.762;44.822;2022-11-15T07:06:48;4.22;;;1.50;;
75997;SDS011;64685;48.762;44.822;2022-11-15T07:09:32;6.88;;;1.85;;
75997;SDS011;64685;48.762;44.822;2022-11-15T07:12:16;7.97;;;1.58;;
75997;SDS011;64685;48.762;44.822;2022-11-15T07:15:01;5.20;;;1.33;;
75997;SDS011;64685;48.762;44.822;2022-11-15T07:17:45;12.00;;;3.95;;
75997;SDS011;64685;48.762;44.822;2022-11-15T07:20:30;5.03;;;1.40;;
75997;SDS011;64685;48.762;44.822;2022-11-15T07:23:14;3.83;;;1.40;;
75997;SDS011;64685;48.762;44.822;2022-11-15T07:25:59;4.00;;;1.25;;
75997;SDS011;64685;48.762;44.822;2022-11-15T07:28:43;5.35;;;2.20;;
75997;SDS011;64685;48.762;44.822;2022-11-15T07:31:28;7.35;;;1.33;;
75997;SDS011;64685;48.762;44.822;2022-11-15T07:34:24;4.60;;;0.98;;
75997;SDS011;64685;48.762;44.822;2022-11-15T07:37:10;4.30;;;1.10;;
75997;SDS011;64685;48.762;44.822;2022-11-15T07:39:54;6.95;;;1.15;;
75997;SDS011;64685;48.762;44.822;2022-11-15T07:42:38;5.28;;;1.10;;
75997;SDS011;64685;48.762;44.822;2022-11-15T07:45:40;3.05;;;1.17;;
75997;SDS011;64685;48.762;44.822;2022-11-15T07:48:28;4.55;;;1.23;;
75997;SDS011;64685;48.762;44.822;2022-11-15T07:51:13;9.05;;;1.98;;
75997;SDS011;64685;48.762;44.822;2022-11-15T07:53:59;6.43;;;1.70;;
75997;SDS011;64685;48.762;44.822;2022-11-15T07:56:43;8.05;;;1.73;;
75997;SDS011;64685;48.762;44.822;2022-11-15T07:59:27;4.18;;;1.33;;
75997;SDS011;64685;48.762;44.822;2022-11-15T08:02:12;8.65;;;1.50;;
75997;SDS011;64685;48.762;44.822;2022-11-15T08:04:56;7.68;;;1.98;;
75997;SDS011;64685;48.762;44.822;2022-11-15T08:07:41;4.55;;;1.40;;
75997;SDS011;64685;48.762;44.822;2022-11-15T08:10:26;5.63;;;1.33;;
75997;SDS011;64685;48.762;44.822;2022-11-15T08:13:11;4.15;;;1.30;;
75997;SDS011;64685;48.762;44.822;2022-11-15T08:15:59;2.90;;;0.98;;
75997;SDS011;64685;48.762;44.822;2022-11-15T08:18:45;4.00;;;1.38;;
75997;SDS011;64685;48.762;44.822;2022-11-15T08:21:29;4.28;;;1.05;;
75997;SDS011;64685;48.762;44.822;2022-11-15T08:24:14;6.53;;;1.65;;
75997;SDS011;64685;48.762;44.822;2022-11-15T08:26:59;3.58;;;1.25;;
75997;SDS011;64685;48.762;44.822;2022-11-15T08:29:44;7.82;;;1.50;;
75997;SDS011;64685;48.762;44.822;2022-11-15T08:32:30;3.75;;;1.35;;
75997;SDS011;64685;48.762;44.822;2022-11-15T08:35:15;4.60;;;1.27;;
75997;SDS011;64685;48.762;44.822;2022-11-15T08:38:01;4.63;;;2.05;;
75997;SDS011;64685;48.762;44.822;2022-11-15T08:40:45;1.70;;;0.82;;
75997;SDS011;64685;48.762;44.822;2022-11-15T08:46:15;5.93;;;0.80;;
75997;SDS011;64685;48.762;44.822;2022-11-15T08:48:59;2.95;;;0.98;;
75997;SDS011;64685;48.762;44.822;2022-11-15T08:51:44;2.85;;;1.05;;
75997;SDS011;64685;48.762;44.822;2022-11-15T08:54:29;3.95;;;0.55;;
75997;SDS011;64685;48.762;44.822;2022-11-15T08:57:13;7.00;;;1.30;;
75997;SDS011;64685;48.762;44.822;2022-11-15T08:59:58;4.07;;;1.25;;
75997;SDS011;64685;48.762;44.822;2022-11-15T09:02:43;4.07;;;1.00;;
75997;SDS011;64685;48.762;44.822;2022-11-15T09:05:27;3.75;;;0.90;;
75997;SDS011;64685;48.762;44.822;2022-11-15T09:08:11;7.05;;;1.25;;
75997;SDS011;64685;48.762;44.822;2022-11-15T09:10:56;8.23;;;1.67;;
75997;SDS011;64685;48.762;44.822;2022-11-15T09:13:41;6.20;;;1.73;;
75997;SDS011;64685;48.762;44.822;2022-11-15T09:16:26;5.20;;;1.52;;
75997;SDS011;64685;48.762;44.822;2022-11-15T09:19:10;3.10;;;1.02;;
75997;SDS011;64685;48.762;44.822;2022-11-15T09:21:54;3.55;;;1.17;;
75997;SDS011;64685;48.762;44.822;2022-11-15T09:24:39;3.00;;;0.88;;
75997;SDS011;64685;48.762;44.822;2022-11-15T09:27:27;3.03;;;0.85;;
75997;SDS011;64685;48.762;44.822;2022-11-15T09:30:12;4.30;;;1.15;;
75997;SDS011;64685;48.762;44.822;2022-11-15T09:32:57;7.32;;;1.00;;
75997;SDS011;64685;48.762;44.822;2022-11-15T09:35:41;4.47;;;1.15;;
75997;SDS011;64685;48.762;44.822;2022-11-15T09:38:26;6.70;;;2.05;;
75997;SDS011;64685;48.762;44.822;2022-11-15T09:50:55;2.90;;;0.70;;
75997;SDS011;64685;48.762;44.822;2022-11-15T09:54:16;5.30;;;1.15;;
75997;SDS011;64685;48.762;44.822;2022-11-15T09:56:19;2.90;;;1.08;;
75997;SDS011;64685;48.762;44.822;2022-11-15T10:04:14;1.88;;;0.60;;
75997;SDS011;64685;48.762;44.822;2022-11-15T10:06:43;2.00;;;0.68;;
75997;SDS011;64685;48.762;44.822;2022-11-15T10:09:26;3.45;;;0.82;;
75997;SDS011;64685;48.762;44.822;2022-11-15T10:12:08;5.88;;;1.95;;
75997;SDS011;64685;48.762;44.822;2022-11-15T10:14:36;8.88;;;2.67;;
75997;SDS011;64685;48.762;44.822;2022-11-15T10:27:38;5.55;;;1.60;;
75997;SDS011;64685;48.762;44.822;2022-11-15T10:30:10;3.00;;;1.20;;
75997;SDS011;64685;48.762;44.822;2022-11-15T10:32:42;4.93;;;1.40;;
75997;SDS011;64685;48.762;44.822;2022-11-15T10:37:51;4.07;;;1.30;;
75997;SDS011;64685;48.762;44.822;2022-11-15T10:40:19;4.65;;;1.02;;
75997;SDS011;64685;48.762;44.822;2022-11-15T10:42:47;2.33;;;0.60;;
75997;SDS011;64685;48.762;44.822;2022-11-15T10:45:27;4.45;;;1.05;;
75997;SDS011;64685;48.762;44.822;2022-11-15T10:50:40;5.80;;;1.10;;
75997;SDS011;64685;48.762;44.822;2022-11-15T10:53:17;3.08;;;1.20;;
75997;SDS011;64685;48.762;44.822;2022-11-15T10:56:00;3.63;;;1.10;;
75997;SDS011;64685;48.762;44.822;2022-11-15T10:58:41;4.25;;;0.95;;
75997;SDS011;64685;48.762;44.822;2022-11-15T11:03:44;4.78;;;1.40;;
75997;SDS011;64685;48.762;44.822;2022-11-15T11:06:23;5.03;;;1.80;;
75997;SDS011;64685;48.762;44.822;2022-11-15T11:09:05;3.92;;;1.20;;
75997;SDS011;64685;48.762;44.822;2022-11-15T11:11:48;5.63;;;1.35;;
75997;SDS011;64685;48.762;44.822;2022-11-15T11:19:46;3.45;;;1.35;;
75997;SDS011;64685;48.762;44.822;2022-11-15T11:22:39;9.55;;;1.67;;
75997;SDS011;64685;48.762;44.822;2022-11-15T11:25:34;6.57;;;2.00;;
75997;SDS011;64685;48.762;44.822;2022-11-15T11:33:33;2.92;;;1.17;;
75997;SDS011;64685;48.762;44.822;2022-11-15T11:39:16;4.15;;;1.00;;
75997;SDS011;64685;48.762;44.822;2022-11-15T11:44:46;5.63;;;1.10;;
75997;SDS011;64685;48.762;44.822;2022-11-15T11:47:32;2.75;;;0.88;;
75997;SDS011;64685;48.762;44.822;2022-11-15T11:52:43;2.92;;;0.77;;
75997;SDS011;64685;48.762;44.822;2022-11-15T11:55:51;5.38;;;1.63;;
75997;SDS011;64685;48.762;44.822;2022-11-15T11:58:38;2.63;;;1.08;;
75997;SDS011;64685;48.762;44.822;2022-11-15T12:17:26;5.13;;;1.00;;
75997;SDS011;64685;48.762;44.822;2022-11-15T12:25:39;2.00;;;1.17;;
75997;SDS011;64685;48.762;44.822;2022-11-15T12:33:37;5.32;;;1.05;;
75997;SDS011;64685;48.762;44.822;2022-11-15T12:36:40;4.18;;;1.25;;
75997;SDS011;64685;48.762;44.822;2022-11-15T12:39:07;5.75;;;1.65;;
75997;SDS011;64685;48.762;44.822;2022-11-15T12:41:40;5.68;;;1.60;;
75997;SDS011;64685;48.762;44.822;2022-11-15T12:44:11;5.18;;;1.25;;
75997;SDS011;64685;48.762;44.822;2022-11-15T12:49:42;1.27;;;0.50;;
75997;SDS011;64685;48.762;44.822;2022-11-15T13:02:21;2.72;;;0.90;;
75997;SDS011;64685;48.762;44.822;2022-11-15T13:12:59;4.90;;;0.77;;
75997;SDS011;64685;48.762;44.822;2022-11-15T13:15:45;2.67;;;0.80;;
75997;SDS011;64685;48.762;44.822;2022-11-15T13:18:26;2.58;;;0.50;;
75997;SDS011;64685;48.762;44.822;2022-11-15T13:20:55;3.10;;;0.90;;
75997;SDS011;64685;48.762;44.822;2022-11-15T13:23:21;3.00;;;0.93;;
75997;SDS011;64685;48.762;44.822;2022-11-15T13:36:51;6.10;;;1.10;;
75997;SDS011;64685;48.762;44.822;2022-11-15T13:39:25;3.92;;;1.25;;
75997;SDS011;64685;48.762;44.822;2022-11-15T13:41:54;7.30;;;1.38;;
75997;SDS011;64685;48.762;44.822;2022-11-15T13:46:48;3.83;;;1.63;;
75997;SDS011;64685;48.762;44.822;2022-11-15T13:49:14;7.18;;;1.27;;
75997;SDS011;64685;48.762;44.822;2022-11-15T13:51:47;9.63;;;1.45;;
75997;SDS011;64685;48.762;44.822;2022-11-15T13:54:28;5.80;;;1.30;;
75997;SDS011;64685;48.762;44.822;2022-11-15T13:59:45;4.82;;;0.82;;
75997;SDS011;64685;48.762;44.822;2022-11-15T14:02:18;5.47;;;1.17;;
75997;SDS011;64685;48.762;44.822;2022-11-15T14:07:56;5.80;;;1.17;;
75997;SDS011;64685;48.762;44.822;2022-11-15T14:10:29;7.03;;;2.10;;
75997;SDS011;64685;48.762;44.822;2022-11-15T14:13:03;8.68;;;1.65;;
75997;SDS011;64685;48.762;44.822;2022-11-15T14:15:37;9.32;;;2.55;;
75997;SDS011;64685;48.762;44.822;2022-11-15T14:18:05;10.15;;;2.92;;
75997;SDS011;64685;48.762;44.822;2022-11-15T14:20:38;14.52;;;2.53;;
75997;SDS011;64685;48.762;44.822;2022-11-15T14:23:26;9.13;;;2.22;;
75997;SDS011;64685;48.762;44.822;2022-11-15T14:25:55;10.68;;;2.75;;
75997;SDS011;64685;48.762;44.822;2022-11-15T14:30:49;10.80;;;2.97;;
75997;SDS011;64685;48.762;44.822;2022-11-15T14:33:36;11.85;;;3.15;;
75997;SDS011;64685;48.762;44.822;2022-11-15T14:36:20;8.63;;;2.53;;
75997;SDS011;64685;48.762;44.822;2022-11-15T14:38:47;11.00;;;3.22;;
75997;SDS011;64685;48.762;44.822;2022-11-15T14:41:17;6.82;;;2.13;;
75997;SDS011;64685;48.762;44.822;2022-11-15T14:43:45;8.38;;;2.63;;
75997;SDS011;64685;48.762;44.822;2022-11-15T14:46:11;9.20;;;3.33;;
75997;SDS011;64685;48.762;44.822;2022-11-15T14:48:37;12.95;;;3.90;;
75997;SDS011;64685;48.762;44.822;2022-11-15T14:51:03;10.95;;;3.70;;
75997;SDS011;64685;48.762;44.822;2022-11-15T14:53:39;12.07;;;3.53;;
75997;SDS011;64685;48.762;44.822;2022-11-15T14:56:06;14.02;;;3.83;;
75997;SDS011;64685;48.762;44.822;2022-11-15T14:58:33;15.45;;;3.60;;
75997;SDS011;64685;48.762;44.822;2022-11-15T15:00:59;9.27;;;3.25;;
75997;SDS011;64685;48.762;44.822;2022-11-15T15:03:27;10.30;;;2.88;;
75997;SDS011;64685;48.762;44.822;2022-11-15T15:05:53;11.20;;;3.10;;
75997;SDS011;64685;48.762;44.822;2022-11-15T15:08:38;11.57;;;2.95;;
75997;SDS011;64685;48.762;44.822;2022-11-15T15:11:14;10.27;;;2.80;;
75997;SDS011;64685;48.762;44.822;2022-11-15T15:13:44;7.72;;;3.08;;
75997;SDS011;64685;48.762;44.822;2022-11-15T15:16:10;11.82;;;2.72;;
75997;SDS011;64685;48.762;44.822;2022-11-15T15:18:36;6.97;;;2.50;;
75997;SDS011;64685;48.762;44.822;2022-11-15T15:21:02;9.48;;;2.90;;
75997;SDS011;64685;48.762;44.822;2022-11-15T15:23:32;13.82;;;2.88;;
75997;SDS011;64685;48.762;44.822;2022-11-15T15:25:58;7.90;;;3.33;;
75997;SDS011;64685;48.762;44.822;2022-11-15T15:28:24;11.18;;;2.75;;
75997;SDS011;64685;48.762;44.822;2022-11-15T15:30:50;14.50;;;3.55;;
75997;SDS011;64685;48.762;44.822;2022-11-15T15:33:18;17.15;;;3.67;;
75997;SDS011;64685;48.762;44.822;2022-11-15T15:35:44;14.73;;;3.30;;
75997;SDS011;64685;48.762;44.822;2022-11-15T15:38:13;11.52;;;4.00;;
75997;SDS011;64685;48.762;44.822;2022-11-15T15:40:40;11.63;;;4.30;;
75997;SDS011;64685;48.762;44.822;2022-11-15T15:43:06;13.15;;;4.07;;
75997;SDS011;64685;48.762;44.822;2022-11-15T15:45:35;15.18;;;4.43;;
75997;SDS011;64685;48.762;44.822;2022-11-15T15:48:04;11.13;;;4.70;;
75997;SDS011;64685;48.762;44.822;2022-11-15T15:50:33;16.02;;;4.70;;
75997;SDS011;64685;48.762;44.822;2022-11-15T15:53:01;14.93;;;4.43;;
75997;SDS011;64685;48.762;44.822;2022-11-15T15:55:29;9.93;;;4.20;;
75997;SDS011;64685;48.762;44.822;2022-11-15T15:57:56;13.52;;;4.28;;
75997;SDS011;64685;48.762;44.822;2022-11-15T16:00:22;14.45;;;5.45;;
75997;SDS011;64685;48.762;44.822;2022-11-15T16:02:50;12.30;;;3.88;;
75997;SDS011;64685;48.762;44.822;2022-11-15T16:05:17;10.05;;;3.35;;
75997;SDS011;64685;48.762;44.822;2022-11-15T16:07:54;10.52;;;3.72;;
75997;SDS011;64685;48.762;44.822;2022-11-15T16:10:24;11.13;;;4.00;;
75997;SDS011;64685;48.762;44.822;2022-11-15T16:12:50;9.25;;;3.53;;
75997;SDS011;64685;48.762;44.822;2022-11-15T16:15:17;8.90;;;4.10;;
75997;SDS011;64685;48.762;44.822;2022-11-15T16:17:47;17.25;;;3.80;;
75997;SDS011;64685;48.762;44.822;2022-11-15T16:20:34;13.85;;;3.95;;
75997;SDS011;64685;48.762;44.822;2022-11-15T16:23:05;12.45;;;3.47;;
75997;SDS011;64685;48.762;44.822;2022-11-15T16:25:37;12.50;;;3.90;;
75997;SDS011;64685;48.762;44.822;2022-11-15T16:28:15;11.55;;;4.65;;
75997;SDS011;64685;48.762;44.822;2022-11-15T16:30:44;11.20;;;4.13;;
75997;SDS011;64685;48.762;44.822;2022-11-15T16:33:10;14.60;;;4.15;;
75997;SDS011;64685;48.762;44.822;2022-11-15T16:35:36;10.35;;;3.85;;
75997;SDS011;64685;48.762;44.822;2022-11-15T16:38:02;12.38;;;4.43;;
75997;SDS011;64685;48.762;44.822;2022-11-15T16:40:29;16.10;;;4.97;;
75997;SDS011;64685;48.762;44.822;2022-11-15T16:42:58;9.02;;;3.50;;
75997;SDS011;64685;48.762;44.822;2022-11-15T16:45:26;13.88;;;5.25;;
75997;SDS011;64685;48.762;44.822;2022-11-15T16:52:49;11.25;;;3.67;;
75997;SDS011;64685;48.762;44.822;2022-11-15T16:55:20;11.35;;;3.75;;
75997;SDS011;64685;48.762;44.822;2022-11-15T16:57:47;17.48;;;4.03;;
75997;SDS011;64685;48.762;44.822;2022-11-15T17:00:14;12.23;;;3.67;;
75997;SDS011;64685;48.762;44.822;2022-11-15T17:02:45;10.45;;;2.13;;
75997;SDS011;64685;48.762;44.822;2022-11-15T17:05:13;11.82;;;3.15;;
75997;SDS011;64685;48.762;44.822;2022-11-15T17:07:40;8.70;;;3.67;;
75997;SDS011;64685;48.762;44.822;2022-11-15T17:10:06;11.07;;;3.50;;
75997;SDS011;64685;48.762;44.822;2022-11-15T17:12:35;12.50;;;3.17;;
75997;SDS011;64685;48.762;44.822;2022-11-15T17:15:02;12.30;;;3.45;;
75997;SDS011;64685;48.762;44.822;2022-11-15T17:17:29;13.25;;;4.50;;
75997;SDS011;64685;48.762;44.822;2022-11-15T17:19:56;12.75;;;4.63;;
75997;SDS011;64685;48.762;44.822;2022-11-15T17:22:22;14.10;;;4.60;;
75997;SDS011;64685;48.762;44.822;2022-11-15T17:24:48;14.38;;;4.90;;
75997;SDS011;64685;48.762;44.822;2022-11-15T17:27:17;18.33;;;4.97;;
75997;SDS011;64685;48.762;44.822;2022-11-15T17:29:52;14.05;;;5.20;;
75997;SDS011;64685;48.762;44.822;2022-11-15T17:32:18;19.35;;;6.05;;
75997;SDS011;64685;48.762;44.822;2022-11-15T17:34:44;14.30;;;5.60;;
75997;SDS011;64685;48.762;44.822;2022-11-15T17:37:10;23.08;;;5.95;;
75997;SDS011;64685;48.762;44.822;2022-11-15T17:39:35;13.63;;;5.15;;
75997;SDS011;64685;48.762;44.822;2022-11-15T17:42:01;13.02;;;5.40;;
75997;SDS011;64685;48.762;44.822;2022-11-15T17:44:27;17.05;;;5.05;;
75997;SDS011;64685;48.762;44.822;2022-11-15T17:46:53;13.57;;;4.63;;
75997;SDS011;64685;48.762;44.822;2022-11-15T17:49:19;10.18;;;4.35;;
75997;SDS011;64685;48.762;44.822;2022-11-15T17:51:45;11.52;;;4.20;;
75997;SDS011;64685;48.762;44.822;2022-11-15T17:54:11;19.70;;;5.70;;
75997;SDS011;64685;48.762;44.822;2022-11-15T17:59:05;11.68;;;4.82;;
75997;SDS011;64685;48.762;44.822;2022-11-15T18:01:33;15.23;;;4.80;;
75997;SDS011;64685;48.762;44.822;2022-11-15T18:04:02;19.25;;;5.22;;
75997;SDS011;64685;48.762;44.822;2022-11-15T18:06:30;12.32;;;4.53;;
75997;SDS011;64685;48.762;44.822;2022-11-15T18:08:58;13.10;;;4.82;;
75997;SDS011;64685;48.762;44.822;2022-11-15T18:11:29;24.15;;;7.63;;
75997;SDS011;64685;48.762;44.822;2022-11-15T18:14:06;17.98;;;5.07;;
75997;SDS011;64685;48.762;44.822;2022-11-15T18:16:35;18.70;;;5.28;;
75997;SDS011;64685;48.762;44.822;2022-11-15T18:19:02;18.17;;;5.72;;
75997;SDS011;64685;48.762;44.822;2022-11-15T18:21:36;16.65;;;6.10;;
75997;SDS011;64685;48.762;44.822;2022-11-15T18:24:24;16.60;;;5.00;;
75997;SDS011;64685;48.762;44.822;2022-11-15T18:26:52;16.27;;;5.20;;
75997;SDS011;64685;48.762;44.822;2022-11-15T18:29:18;19.25;;;6.38;;
75997;SDS011;64685;48.762;44.822;2022-11-15T18:31:44;18.80;;;6.18;;
75997;SDS011;64685;48.762;44.822;2022-11-15T18:34:11;16.75;;;5.43;;
75997;SDS011;64685;48.762;44.822;2022-11-15T18:36:37;16.52;;;5.65;;
75997;SDS011;64685;48.762;44.822;2022-11-15T18:39:04;20.95;;;5.82;;
75997;SDS011;64685;48.762;44.822;2022-11-15T18:41:35;22.15;;;6.75;;
75997;SDS011;64685;48.762;44.822;2022-11-15T18:44:01;18.95;;;6.55;;
75997;SDS011;64685;48.762;44.822;2022-11-15T18:46:28;18.50;;;5.85;;
75997;SDS011;64685;48.762;44.822;2022-11-15T18:48:57;18.73;;;6.15;;
75997;SDS011;64685;48.762;44.822;2022-11-15T18:51:24;21.55;;;6.22;;
75997;SDS011;64685;48.762;44.822;2022-11-15T18:53:52;22.52;;;6.25;;
75997;SDS011;64685;48.762;44.822;2022-11-15T18:56:19;20.50;;;6.63;;
75997;SDS011;64685;48.762;44.822;2022-11-15T18:58:47;16.13;;;5.70;;